sensor_id;sensor_type;location;lat;lon;timestamp;P1;durP1;ratioP1;P2;durP2;ratioP2
64197;SDS011;50512;53.666;9.700;2024-01-15T00:01:56;7.70;;;2.05;;
64197;SDS011;50512;53.666;9.700;2024-01-15T00:04:24;10.63;;;2.47;;
64197;SDS011;50512;53.666;9.700;2024-01-15T00:06:51;5.38;;;2.05;;
64197;SDS011;50512;53.666;9.700;2024-01-15T00:09:17;10.25;;;1.80;;
64197;SDS011;50512;53.666;9.700;2024-01-15T00:11:44;11.00;;;1.33;;
64197;SDS011;50512;53.666;9.700;2024-01-15T00:14:11;8.98;;;2.00;;
64197;SDS011;50512;53.666;9.700;2024-01-15T00:16:39;7.43;;;2.00;;
64197;SDS011;50512;53.666;9.700;2024-01-15T00:19:06;11.48;;;1.70;;
64197;SDS011;50512;53.666;9.700;2024-01-15T00:21:34;12.05;;;2.22;;
64197;SDS011;50512;53.666;9.700;2024-01-15T00:24:00;14.52;;;2.13;;
64197;SDS011;50512;53.666;9.700;2024-01-15T00:26:27;7.80;;;2.00;;
64197;SDS011;50512;53.666;9.700;2024-01-15T00:28:53;15.57;;;2.78;;
64197;SDS011;50512;53.666;9.700;2024-01-15T00:31:20;9.27;;;3.80;;
64197;SDS011;50512;53.666;9.700;2024-01-15T00:33:46;20.60;;;2.60;;
64197;SDS011;50512;53.666;9.700;2024-01-15T00:36:12;15.43;;;2.88;;
64197;SDS011;50512;53.666;9.700;2024-01-15T00:38:41;11.38;;;2.90;;
64197;SDS011;50512;53.666;9.700;2024-01-15T00:41:07;12.57;;;3.08;;
64197;SDS011;50512;53.666;9.700;2024-01-15T00:43:34;11.23;;;2.40;;
64197;SDS011;50512;53.666;9.700;2024-01-15T00:46:01;10.48;;;1.88;;
64197;SDS011;50512;53.666;9.700;2024-01-15T00:48:28;13.82;;;3.00;;
64197;SDS011;50512;53.666;9.700;2024-01-15T00:50:54;11.85;;;2.72;;
64197;SDS011;50512;53.666;9.700;2024-01-15T00:53:21;9.65;;;2.10;;
64197;SDS011;50512;53.666;9.700;2024-01-15T00:55:49;12.23;;;2.30;;
64197;SDS011;50512;53.666;9.700;2024-01-15T00:58:16;11.25;;;2.85;;
64197;SDS011;50512;53.666;9.700;2024-01-15T01:00:42;8.98;;;2.78;;
64197;SDS011;50512;53.666;9.700;2024-01-15T01:03:09;12.60;;;3.03;;
64197;SDS011;50512;53.666;9.700;2024-01-15T01:05:35;14.98;;;3.10;;
64197;SDS011;50512;53.666;9.700;2024-01-15T01:08:02;19.10;;;2.53;;
64197;SDS011;50512;53.666;9.700;2024-01-15T01:10:29;18.63;;;2.78;;
64197;SDS011;50512;53.666;9.700;2024-01-15T01:12:57;16.92;;;2.90;;
64197;SDS011;50512;53.666;9.700;2024-01-15T01:15:24;12.18;;;2.45;;
64197;SDS011;50512;53.666;9.700;2024-01-15T01:17:50;19.08;;;3.00;;
64197;SDS011;50512;53.666;9.700;2024-01-15T01:20:17;3.83;;;1.50;;
64197;SDS011;50512;53.666;9.700;2024-01-15T01:22:43;15.63;;;1.77;;
64197;SDS011;50512;53.666;9.700;2024-01-15T01:25:10;11.40;;;1.92;;
64197;SDS011;50512;53.666;9.700;2024-01-15T01:27:36;5.85;;;1.80;;
64197;SDS011;50512;53.666;9.700;2024-01-15T01:30:05;9.32;;;1.60;;
64197;SDS011;50512;53.666;9.700;2024-01-15T01:32:32;16.17;;;2.10;;
64197;SDS011;50512;53.666;9.700;2024-01-15T01:34:59;7.22;;;1.70;;
64197;SDS011;50512;53.666;9.700;2024-01-15T01:37:25;6.90;;;2.97;;
64197;SDS011;50512;53.666;9.700;2024-01-15T01:39:52;10.35;;;1.98;;
64197;SDS011;50512;53.666;9.700;2024-01-15T01:42:18;9.95;;;1.20;;
64197;SDS011;50512;53.666;9.700;2024-01-15T01:44:45;11.30;;;1.75;;
64197;SDS011;50512;53.666;9.700;2024-01-15T01:47:12;10.32;;;2.20;;
64197;SDS011;50512;53.666;9.700;2024-01-15T01:49:40;9.57;;;1.75;;
64197;SDS011;50512;53.666;9.700;2024-01-15T01:52:08;9.05;;;2.60;;
64197;SDS011;50512;53.666;9.700;2024-01-15T01:54:35;13.90;;;1.75;;
64197;SDS011;50512;53.666;9.700;2024-01-15T01:57:03;11.68;;;2.50;;
64197;SDS011;50512;53.666;9.700;2024-01-15T01:59:31;8.43;;;2.80;;
64197;SDS011;50512;53.666;9.700;2024-01-15T02:02:00;6.15;;;1.00;;
64197;SDS011;50512;53.666;9.700;2024-01-15T02:04:30;7.22;;;1.45;;
64197;SDS011;50512;53.666;9.700;2024-01-15T02:06:57;10.95;;;1.83;;
64197;SDS011;50512;53.666;9.700;2024-01-15T02:09:25;15.73;;;1.67;;
64197;SDS011;50512;53.666;9.700;2024-01-15T02:11:51;14.20;;;4.32;;
64197;SDS011;50512;53.666;9.700;2024-01-15T02:14:18;7.55;;;1.60;;
64197;SDS011;50512;53.666;9.700;2024-01-15T02:16:44;8.38;;;1.10;;
64197;SDS011;50512;53.666;9.700;2024-01-15T02:19:14;6.93;;;1.10;;
64197;SDS011;50512;53.666;9.700;2024-01-15T02:21:42;7.30;;;1.48;;
64197;SDS011;50512;53.666;9.700;2024-01-15T02:24:10;17.35;;;1.83;;
64197;SDS011;50512;53.666;9.700;2024-01-15T02:26:37;7.03;;;1.40;;
64197;SDS011;50512;53.666;9.700;2024-01-15T02:29:04;8.65;;;2.00;;
64197;SDS011;50512;53.666;9.700;2024-01-15T02:31:33;13.05;;;1.65;;
64197;SDS011;50512;53.666;9.700;2024-01-15T02:33:59;7.97;;;2.22;;
64197;SDS011;50512;53.666;9.700;2024-01-15T02:36:25;5.57;;;1.40;;
64197;SDS011;50512;53.666;9.700;2024-01-15T02:38:52;10.07;;;1.85;;
64197;SDS011;50512;53.666;9.700;2024-01-15T02:41:20;7.38;;;2.05;;
64197;SDS011;50512;53.666;9.700;2024-01-15T02:43:46;16.70;;;2.13;;
64197;SDS011;50512;53.666;9.700;2024-01-15T02:46:13;12.15;;;2.25;;
64197;SDS011;50512;53.666;9.700;2024-01-15T02:48:41;14.45;;;2.00;;
64197;SDS011;50512;53.666;9.700;2024-01-15T02:51:07;10.55;;;1.52;;
64197;SDS011;50512;53.666;9.700;2024-01-15T02:53:35;15.60;;;4.68;;
64197;SDS011;50512;53.666;9.700;2024-01-15T02:56:02;11.82;;;1.67;;
64197;SDS011;50512;53.666;9.700;2024-01-15T02:58:30;11.20;;;2.47;;
64197;SDS011;50512;53.666;9.700;2024-01-15T03:00:56;14.88;;;2.60;;
64197;SDS011;50512;53.666;9.700;2024-01-15T03:03:23;19.17;;;2.60;;
64197;SDS011;50512;53.666;9.700;2024-01-15T03:05:49;21.88;;;2.35;;
64197;SDS011;50512;53.666;9.700;2024-01-15T03:08:16;21.60;;;2.72;;
64197;SDS011;50512;53.666;9.700;2024-01-15T03:10:42;18.02;;;2.65;;
64197;SDS011;50512;53.666;9.700;2024-01-15T03:13:09;14.82;;;2.42;;
64197;SDS011;50512;53.666;9.700;2024-01-15T03:15:36;8.52;;;2.10;;
64197;SDS011;50512;53.666;9.700;2024-01-15T03:18:03;15.02;;;2.40;;
64197;SDS011;50512;53.666;9.700;2024-01-15T03:20:30;15.40;;;2.17;;
64197;SDS011;50512;53.666;9.700;2024-01-15T03:22:57;15.00;;;2.78;;
64197;SDS011;50512;53.666;9.700;2024-01-15T03:25:23;14.63;;;2.60;;
64197;SDS011;50512;53.666;9.700;2024-01-15T03:27:49;14.88;;;2.80;;
64197;SDS011;50512;53.666;9.700;2024-01-15T03:30:16;19.83;;;4.53;;
64197;SDS011;50512;53.666;9.700;2024-01-15T03:32:44;21.80;;;3.90;;
64197;SDS011;50512;53.666;9.700;2024-01-15T03:35:12;10.93;;;2.83;;
64197;SDS011;50512;53.666;9.700;2024-01-15T03:37:38;14.60;;;2.42;;
64197;SDS011;50512;53.666;9.700;2024-01-15T03:40:05;10.93;;;2.60;;
64197;SDS011;50512;53.666;9.700;2024-01-15T03:42:33;13.93;;;2.22;;
64197;SDS011;50512;53.666;9.700;2024-01-15T03:44:59;12.93;;;1.75;;
64197;SDS011;50512;53.666;9.700;2024-01-15T03:47:26;10.52;;;2.60;;
64197;SDS011;50512;53.666;9.700;2024-01-15T03:49:54;13.32;;;1.98;;
64197;SDS011;50512;53.666;9.700;2024-01-15T03:52:20;21.20;;;2.63;;
64197;SDS011;50512;53.666;9.700;2024-01-15T03:54:46;10.40;;;1.63;;
64197;SDS011;50512;53.666;9.700;2024-01-15T03:57:13;6.90;;;1.92;;
64197;SDS011;50512;53.666;9.700;2024-01-15T03:59:40;9.50;;;1.40;;
64197;SDS011;50512;53.666;9.700;2024-01-15T04:02:06;14.35;;;2.20;;
64197;SDS011;50512;53.666;9.700;2024-01-15T04:04:33;6.60;;;1.60;;
64197;SDS011;50512;53.666;9.700;2024-01-15T04:07:00;8.63;;;1.52;;
64197;SDS011;50512;53.666;9.700;2024-01-15T04:09:27;12.27;;;1.85;;
64197;SDS011;50512;53.666;9.700;2024-01-15T04:11:52;7.68;;;1.83;;
64197;SDS011;50512;53.666;9.700;2024-01-15T04:14:19;11.13;;;2.30;;
64197;SDS011;50512;53.666;9.700;2024-01-15T04:16:45;13.13;;;2.85;;
64197;SDS011;50512;53.666;9.700;2024-01-15T04:19:11;24.52;;;3.92;;
64197;SDS011;50512;53.666;9.700;2024-01-15T04:21:38;15.00;;;3.25;;
64197;SDS011;50512;53.666;9.700;2024-01-15T04:24:06;15.30;;;4.30;;
64197;SDS011;50512;53.666;9.700;2024-01-15T04:26:32;13.52;;;3.13;;
64197;SDS011;50512;53.666;9.700;2024-01-15T04:28:59;16.08;;;3.00;;
64197;SDS011;50512;53.666;9.700;2024-01-15T04:31:25;21.08;;;2.80;;
64197;SDS011;50512;53.666;9.700;2024-01-15T04:33:52;16.75;;;2.85;;
64197;SDS011;50512;53.666;9.700;2024-01-15T04:36:19;21.75;;;3.58;;
64197;SDS011;50512;53.666;9.700;2024-01-15T04:38:45;20.60;;;3.38;;
64197;SDS011;50512;53.666;9.700;2024-01-15T04:41:13;18.88;;;4.10;;
64197;SDS011;50512;53.666;9.700;2024-01-15T04:43:41;22.13;;;3.00;;
64197;SDS011;50512;53.666;9.700;2024-01-15T04:46:07;13.82;;;2.90;;
64197;SDS011;50512;53.666;9.700;2024-01-15T04:48:34;25.83;;;4.05;;
64197;SDS011;50512;53.666;9.700;2024-01-15T04:51:00;22.35;;;3.40;;
64197;SDS011;50512;53.666;9.700;2024-01-15T04:53:31;14.50;;;2.88;;
64197;SDS011;50512;53.666;9.700;2024-01-15T04:55:58;19.27;;;3.20;;
64197;SDS011;50512;53.666;9.700;2024-01-15T04:58:26;20.85;;;3.35;;
64197;SDS011;50512;53.666;9.700;2024-01-15T05:00:52;21.27;;;3.38;;
64197;SDS011;50512;53.666;9.700;2024-01-15T05:03:19;17.88;;;3.55;;
64197;SDS011;50512;53.666;9.700;2024-01-15T05:05:45;16.58;;;2.83;;
64197;SDS011;50512;53.666;9.700;2024-01-15T05:08:12;18.05;;;3.15;;
64197;SDS011;50512;53.666;9.700;2024-01-15T05:10:38;23.25;;;3.55;;
64197;SDS011;50512;53.666;9.700;2024-01-15T05:13:05;29.17;;;4.57;;
64197;SDS011;50512;53.666;9.700;2024-01-15T05:15:33;13.90;;;3.50;;
64197;SDS011;50512;53.666;9.700;2024-01-15T05:17:59;17.52;;;3.95;;
64197;SDS011;50512;53.666;9.700;2024-01-15T05:20:26;17.33;;;2.75;;
64197;SDS011;50512;53.666;9.700;2024-01-15T05:22:52;15.75;;;3.60;;
64197;SDS011;50512;53.666;9.700;2024-01-15T05:25:18;16.42;;;4.30;;
64197;SDS011;50512;53.666;9.700;2024-01-15T05:27:45;24.13;;;4.60;;
64197;SDS011;50512;53.666;9.700;2024-01-15T05:30:12;28.90;;;3.92;;
64197;SDS011;50512;53.666;9.700;2024-01-15T05:32:40;23.35;;;3.55;;
64197;SDS011;50512;53.666;9.700;2024-01-15T05:35:07;23.67;;;3.42;;
64197;SDS011;50512;53.666;9.700;2024-01-15T05:37:33;19.52;;;2.90;;
64197;SDS011;50512;53.666;9.700;2024-01-15T05:39:59;20.00;;;3.60;;
64197;SDS011;50512;53.666;9.700;2024-01-15T05:42:26;20.73;;;4.80;;
64197;SDS011;50512;53.666;9.700;2024-01-15T05:44:55;21.33;;;2.97;;
64197;SDS011;50512;53.666;9.700;2024-01-15T05:47:22;12.80;;;3.10;;
64197;SDS011;50512;53.666;9.700;2024-01-15T05:49:50;20.60;;;3.08;;
64197;SDS011;50512;53.666;9.700;2024-01-15T05:52:16;17.88;;;3.05;;
64197;SDS011;50512;53.666;9.700;2024-01-15T05:54:43;14.15;;;2.63;;
64197;SDS011;50512;53.666;9.700;2024-01-15T05:57:09;19.08;;;2.75;;
64197;SDS011;50512;53.666;9.700;2024-01-15T05:59:35;23.75;;;3.92;;
64197;SDS011;50512;53.666;9.700;2024-01-15T06:02:02;26.48;;;2.78;;
64197;SDS011;50512;53.666;9.700;2024-01-15T06:04:29;15.00;;;2.20;;
64197;SDS011;50512;53.666;9.700;2024-01-15T06:06:56;11.55;;;1.98;;
64197;SDS011;50512;53.666;9.700;2024-01-15T06:09:23;19.45;;;2.67;;
64197;SDS011;50512;53.666;9.700;2024-01-15T06:11:49;8.98;;;1.23;;
64197;SDS011;50512;53.666;9.700;2024-01-15T06:14:16;8.48;;;1.67;;
64197;SDS011;50512;53.666;9.700;2024-01-15T06:16:42;4.85;;;1.48;;
64197;SDS011;50512;53.666;9.700;2024-01-15T06:19:09;4.40;;;1.10;;
64197;SDS011;50512;53.666;9.700;2024-01-15T06:21:35;7.00;;;1.58;;
64197;SDS011;50512;53.666;9.700;2024-01-15T06:24:03;15.40;;;3.10;;
64197;SDS011;50512;53.666;9.700;2024-01-15T06:26:30;9.50;;;2.30;;
64197;SDS011;50512;53.666;9.700;2024-01-15T06:28:56;12.68;;;1.58;;
64197;SDS011;50512;53.666;9.700;2024-01-15T06:31:22;11.65;;;2.95;;
64197;SDS011;50512;53.666;9.700;2024-01-15T06:33:49;16.05;;;1.63;;
64197;SDS011;50512;53.666;9.700;2024-01-15T06:36:15;13.07;;;2.05;;
64197;SDS011;50512;53.666;9.700;2024-01-15T06:38:43;8.65;;;1.70;;
64197;SDS011;50512;53.666;9.700;2024-01-15T06:41:11;13.68;;;2.08;;
64197;SDS011;50512;53.666;9.700;2024-01-15T06:43:37;23.90;;;3.17;;
64197;SDS011;50512;53.666;9.700;2024-01-15T06:46:04;17.00;;;1.70;;
64197;SDS011;50512;53.666;9.700;2024-01-15T06:48:30;10.57;;;2.25;;
64197;SDS011;50512;53.666;9.700;2024-01-15T06:50:57;11.73;;;1.65;;
64197;SDS011;50512;53.666;9.700;2024-01-15T06:53:23;12.15;;;2.35;;
64197;SDS011;50512;53.666;9.700;2024-01-15T06:55:50;11.15;;;2.17;;
64197;SDS011;50512;53.666;9.700;2024-01-15T06:58:17;13.98;;;3.20;;
64197;SDS011;50512;53.666;9.700;2024-01-15T07:00:44;17.05;;;3.03;;
64197;SDS011;50512;53.666;9.700;2024-01-15T07:03:10;11.02;;;1.73;;
64197;SDS011;50512;53.666;9.700;2024-01-15T07:05:37;8.68;;;2.05;;
64197;SDS011;50512;53.666;9.700;2024-01-15T07:08:03;9.80;;;1.65;;
64197;SDS011;50512;53.666;9.700;2024-01-15T07:10:30;6.90;;;1.70;;
64197;SDS011;50512;53.666;9.700;2024-01-15T07:12:57;7.35;;;1.75;;
64197;SDS011;50512;53.666;9.700;2024-01-15T07:15:25;4.45;;;1.60;;
64197;SDS011;50512;53.666;9.700;2024-01-15T07:17:51;10.82;;;1.50;;
64197;SDS011;50512;53.666;9.700;2024-01-15T07:20:18;6.72;;;1.10;;
64197;SDS011;50512;53.666;9.700;2024-01-15T07:22:45;5.72;;;1.38;;
64197;SDS011;50512;53.666;9.700;2024-01-15T07:25:12;14.23;;;1.52;;
64197;SDS011;50512;53.666;9.700;2024-01-15T07:27:38;8.80;;;1.45;;
64197;SDS011;50512;53.666;9.700;2024-01-15T07:30:08;3.15;;;1.02;;
64197;SDS011;50512;53.666;9.700;2024-01-15T07:32:36;6.18;;;1.38;;
64197;SDS011;50512;53.666;9.700;2024-01-15T07:35:02;6.72;;;1.30;;
64197;SDS011;50512;53.666;9.700;2024-01-15T07:37:30;7.43;;;1.30;;
64197;SDS011;50512;53.666;9.700;2024-01-15T07:39:56;3.72;;;1.23;;
64197;SDS011;50512;53.666;9.700;2024-01-15T07:42:23;7.40;;;1.65;;
64197;SDS011;50512;53.666;9.700;2024-01-15T07:44:49;13.48;;;1.65;;
64197;SDS011;50512;53.666;9.700;2024-01-15T07:47:16;13.82;;;2.10;;
64197;SDS011;50512;53.666;9.700;2024-01-15T07:49:44;7.28;;;1.08;;
64197;SDS011;50512;53.666;9.700;2024-01-15T07:52:10;8.82;;;1.95;;
64197;SDS011;50512;53.666;9.700;2024-01-15T07:54:38;8.85;;;2.00;;
64197;SDS011;50512;53.666;9.700;2024-01-15T07:57:04;7.57;;;1.67;;
64197;SDS011;50512;53.666;9.700;2024-01-15T07:59:31;7.05;;;2.03;;
64197;SDS011;50512;53.666;9.700;2024-01-15T08:01:58;8.63;;;1.50;;
64197;SDS011;50512;53.666;9.700;2024-01-15T08:04:25;11.18;;;1.80;;
64197;SDS011;50512;53.666;9.700;2024-01-15T08:06:53;10.07;;;1.50;;
64197;SDS011;50512;53.666;9.700;2024-01-15T08:09:19;14.48;;;1.85;;
64197;SDS011;50512;53.666;9.700;2024-01-15T08:11:46;8.15;;;1.65;;
64197;SDS011;50512;53.666;9.700;2024-01-15T08:14:12;9.77;;;1.80;;
64197;SDS011;50512;53.666;9.700;2024-01-15T08:16:39;12.23;;;2.00;;
64197;SDS011;50512;53.666;9.700;2024-01-15T08:19:05;7.70;;;1.58;;
64197;SDS011;50512;53.666;9.700;2024-01-15T08:21:32;10.20;;;3.63;;
64197;SDS011;50512;53.666;9.700;2024-01-15T08:24:01;9.43;;;1.63;;
64197;SDS011;50512;53.666;9.700;2024-01-15T08:26:28;11.63;;;1.77;;
64197;SDS011;50512;53.666;9.700;2024-01-15T08:28:55;9.13;;;1.08;;
64197;SDS011;50512;53.666;9.700;2024-01-15T08:31:21;4.90;;;1.70;;
64197;SDS011;50512;53.666;9.700;2024-01-15T08:33:48;7.40;;;1.65;;
64197;SDS011;50512;53.666;9.700;2024-01-15T08:36:15;10.60;;;1.63;;
64197;SDS011;50512;53.666;9.700;2024-01-15T08:38:41;11.82;;;2.33;;
64197;SDS011;50512;53.666;9.700;2024-01-15T08:41:09;10.80;;;1.98;;
64197;SDS011;50512;53.666;9.700;2024-01-15T08:43:36;14.05;;;1.80;;
64197;SDS011;50512;53.666;9.700;2024-01-15T08:46:02;5.45;;;1.40;;
64197;SDS011;50512;53.666;9.700;2024-01-15T08:48:29;6.07;;;1.42;;
64197;SDS011;50512;53.666;9.700;2024-01-15T08:50:55;8.98;;;1.75;;
64197;SDS011;50512;53.666;9.700;2024-01-15T08:53:22;5.07;;;1.10;;
64197;SDS011;50512;53.666;9.700;2024-01-15T08:55:48;18.65;;;2.33;;
64197;SDS011;50512;53.666;9.700;2024-01-15T08:58:16;12.25;;;1.70;;
64197;SDS011;50512;53.666;9.700;2024-01-15T09:00:43;6.78;;;1.55;;
64197;SDS011;50512;53.666;9.700;2024-01-15T09:03:09;9.82;;;1.55;;
64197;SDS011;50512;53.666;9.700;2024-01-15T09:05:36;12.88;;;1.83;;
64197;SDS011;50512;53.666;9.700;2024-01-15T09:08:03;10.82;;;1.83;;
64197;SDS011;50512;53.666;9.700;2024-01-15T09:10:30;7.80;;;1.90;;
64197;SDS011;50512;53.666;9.700;2024-01-15T09:12:56;15.07;;;2.08;;
64197;SDS011;50512;53.666;9.700;2024-01-15T09:15:24;11.90;;;1.70;;
64197;SDS011;50512;53.666;9.700;2024-01-15T09:17:51;11.35;;;2.08;;
64197;SDS011;50512;53.666;9.700;2024-01-15T09:20:17;6.32;;;1.73;;
64197;SDS011;50512;53.666;9.700;2024-01-15T09:22:44;8.88;;;2.67;;
64197;SDS011;50512;53.666;9.700;2024-01-15T09:25:10;13.68;;;2.72;;
64197;SDS011;50512;53.666;9.700;2024-01-15T09:27:37;11.55;;;3.53;;
64197;SDS011;50512;53.666;9.700;2024-01-15T09:30:03;17.75;;;6.82;;
64197;SDS011;50512;53.666;9.700;2024-01-15T09:32:32;10.52;;;3.67;;
64197;SDS011;50512;53.666;9.700;2024-01-15T09:34:59;12.38;;;3.85;;
64197;SDS011;50512;53.666;9.700;2024-01-15T09:37:25;13.73;;;4.68;;
64197;SDS011;50512;53.666;9.700;2024-01-15T09:39:51;14.90;;;3.38;;
64197;SDS011;50512;53.666;9.700;2024-01-15T09:42:20;8.88;;;2.15;;
64197;SDS011;50512;53.666;9.700;2024-01-15T09:44:49;11.18;;;2.33;;
64197;SDS011;50512;53.666;9.700;2024-01-15T09:47:16;8.25;;;1.60;;
64197;SDS011;50512;53.666;9.700;2024-01-15T09:49:45;11.57;;;2.45;;
64197;SDS011;50512;53.666;9.700;2024-01-15T09:52:11;23.02;;;3.92;;
64197;SDS011;50512;53.666;9.700;2024-01-15T09:54:40;7.22;;;1.58;;
64197;SDS011;50512;53.666;9.700;2024-01-15T09:57:09;14.45;;;2.08;;
64197;SDS011;50512;53.666;9.700;2024-01-15T09:59:36;13.57;;;1.75;;
64197;SDS011;50512;53.666;9.700;2024-01-15T10:02:04;9.20;;;1.60;;
64197;SDS011;50512;53.666;9.700;2024-01-15T10:04:32;11.80;;;2.35;;
64197;SDS011;50512;53.666;9.700;2024-01-15T10:07:00;11.60;;;1.83;;
64197;SDS011;50512;53.666;9.700;2024-01-15T10:09:27;12.13;;;1.90;;
64197;SDS011;50512;53.666;9.700;2024-01-15T10:11:53;4.93;;;1.52;;
64197;SDS011;50512;53.666;9.700;2024-01-15T10:14:20;13.15;;;1.30;;
64197;SDS011;50512;53.666;9.700;2024-01-15T10:16:47;6.93;;;1.20;;
64197;SDS011;50512;53.666;9.700;2024-01-15T10:19:13;7.65;;;1.30;;
64197;SDS011;50512;53.666;9.700;2024-01-15T10:21:40;14.18;;;1.73;;
64197;SDS011;50512;53.666;9.700;2024-01-15T10:24:08;6.57;;;1.25;;
64197;SDS011;50512;53.666;9.700;2024-01-15T10:26:34;3.10;;;1.02;;
64197;SDS011;50512;53.666;9.700;2024-01-15T10:29:01;5.07;;;1.38;;
64197;SDS011;50512;53.666;9.700;2024-01-15T10:31:27;7.35;;;1.30;;
64197;SDS011;50512;53.666;9.700;2024-01-15T10:33:54;7.75;;;1.60;;
64197;SDS011;50512;53.666;9.700;2024-01-15T10:36:22;4.63;;;1.42;;
64197;SDS011;50512;53.666;9.700;2024-01-15T10:38:48;2.67;;;0.70;;
64197;SDS011;50512;53.666;9.700;2024-01-15T10:41:16;10.98;;;1.13;;
64197;SDS011;50512;53.666;9.700;2024-01-15T10:43:43;14.20;;;1.55;;
64197;SDS011;50512;53.666;9.700;2024-01-15T10:46:10;12.57;;;2.28;;
64197;SDS011;50512;53.666;9.700;2024-01-15T10:48:37;14.35;;;2.70;;
64197;SDS011;50512;53.666;9.700;2024-01-15T10:51:03;10.52;;;2.88;;
64197;SDS011;50512;53.666;9.700;2024-01-15T10:53:35;9.02;;;1.63;;
64197;SDS011;50512;53.666;9.700;2024-01-15T10:56:04;9.23;;;1.80;;
64197;SDS011;50512;53.666;9.700;2024-01-15T10:58:33;6.78;;;1.67;;
64197;SDS011;50512;53.666;9.700;2024-01-15T11:00:59;7.53;;;1.85;;
64197;SDS011;50512;53.666;9.700;2024-01-15T11:03:27;3.80;;;1.08;;
64197;SDS011;50512;53.666;9.700;2024-01-15T11:05:53;8.10;;;1.10;;
64197;SDS011;50512;53.666;9.700;2024-01-15T11:08:20;8.00;;;1.50;;
64197;SDS011;50512;53.666;9.700;2024-01-15T11:10:47;6.38;;;1.80;;
64197;SDS011;50512;53.666;9.700;2024-01-15T11:13:19;8.48;;;1.63;;
64197;SDS011;50512;53.666;9.700;2024-01-15T11:18:34;8.45;;;1.77;;
64197;SDS011;50512;53.666;9.700;2024-01-15T11:23:48;12.93;;;1.95;;
64197;SDS011;50512;53.666;9.700;2024-01-15T11:26:29;6.22;;;2.10;;
64197;SDS011;50512;53.666;9.700;2024-01-15T11:28:56;13.15;;;2.05;;
64197;SDS011;50512;53.666;9.700;2024-01-15T11:31:29;9.75;;;1.73;;
64197;SDS011;50512;53.666;9.700;2024-01-15T11:39:43;8.80;;;3.28;;
64197;SDS011;50512;53.666;9.700;2024-01-15T11:42:09;7.57;;;1.38;;
64197;SDS011;50512;53.666;9.700;2024-01-15T11:44:36;4.60;;;1.92;;
64197;SDS011;50512;53.666;9.700;2024-01-15T11:47:05;3.75;;;1.80;;
64197;SDS011;50512;53.666;9.700;2024-01-15T11:49:38;10.65;;;2.70;;
64197;SDS011;50512;53.666;9.700;2024-01-15T11:52:31;7.63;;;2.30;;
64197;SDS011;50512;53.666;9.700;2024-01-15T11:55:07;5.50;;;1.67;;
64197;SDS011;50512;53.666;9.700;2024-01-15T11:57:40;2.95;;;1.95;;
64197;SDS011;50512;53.666;9.700;2024-01-15T12:00:09;8.50;;;2.22;;
64197;SDS011;50512;53.666;9.700;2024-01-15T12:02:38;5.55;;;2.17;;
64197;SDS011;50512;53.666;9.700;2024-01-15T12:05:06;6.35;;;2.45;;
64197;SDS011;50512;53.666;9.700;2024-01-15T12:07:33;9.32;;;2.88;;
64197;SDS011;50512;53.666;9.700;2024-01-15T12:10:00;5.82;;;2.05;;
64197;SDS011;50512;53.666;9.700;2024-01-15T12:12:29;5.68;;;2.40;;
64197;SDS011;50512;53.666;9.700;2024-01-15T12:15:03;4.57;;;2.00;;
64197;SDS011;50512;53.666;9.700;2024-01-15T12:17:30;4.60;;;1.85;;
64197;SDS011;50512;53.666;9.700;2024-01-15T12:19:58;3.28;;;1.50;;
64197;SDS011;50512;53.666;9.700;2024-01-15T12:22:25;3.63;;;1.48;;
64197;SDS011;50512;53.666;9.700;2024-01-15T12:24:52;4.03;;;1.73;;
64197;SDS011;50512;53.666;9.700;2024-01-15T12:27:19;2.55;;;1.50;;
64197;SDS011;50512;53.666;9.700;2024-01-15T12:29:46;5.50;;;1.92;;
64197;SDS011;50512;53.666;9.700;2024-01-15T12:32:12;6.57;;;2.50;;
64197;SDS011;50512;53.666;9.700;2024-01-15T12:34:39;4.38;;;2.05;;
64197;SDS011;50512;53.666;9.700;2024-01-15T12:37:07;2.78;;;1.60;;
64197;SDS011;50512;53.666;9.700;2024-01-15T12:39:34;2.65;;;1.58;;
64197;SDS011;50512;53.666;9.700;2024-01-15T12:42:01;4.68;;;1.80;;
64197;SDS011;50512;53.666;9.700;2024-01-15T12:44:28;6.32;;;2.13;;
64197;SDS011;50512;53.666;9.700;2024-01-15T12:46:55;4.45;;;1.95;;
64197;SDS011;50512;53.666;9.700;2024-01-15T12:49:23;6.95;;;1.70;;
64197;SDS011;50512;53.666;9.700;2024-01-15T12:51:53;5.68;;;1.77;;
64197;SDS011;50512;53.666;9.700;2024-01-15T12:54:21;6.50;;;1.73;;
64197;SDS011;50512;53.666;9.700;2024-01-15T12:56:48;2.40;;;1.42;;
64197;SDS011;50512;53.666;9.700;2024-01-15T12:59:15;6.28;;;2.25;;
64197;SDS011;50512;53.666;9.700;2024-01-15T13:01:42;5.80;;;2.67;;
64197;SDS011;50512;53.666;9.700;2024-01-15T13:04:08;4.53;;;2.42;;
64197;SDS011;50512;53.666;9.700;2024-01-15T13:06:35;7.93;;;2.55;;
64197;SDS011;50512;53.666;9.700;2024-01-15T13:09:02;4.93;;;2.10;;
64197;SDS011;50512;53.666;9.700;2024-01-15T13:11:31;6.57;;;2.25;;
64197;SDS011;50512;53.666;9.700;2024-01-15T13:13:58;6.28;;;2.38;;
64197;SDS011;50512;53.666;9.700;2024-01-15T13:16:24;5.20;;;2.40;;
64197;SDS011;50512;53.666;9.700;2024-01-15T13:18:52;5.38;;;2.50;;
64197;SDS011;50512;53.666;9.700;2024-01-15T13:21:18;6.30;;;2.75;;
64197;SDS011;50512;53.666;9.700;2024-01-15T13:23:45;7.35;;;2.67;;
64197;SDS011;50512;53.666;9.700;2024-01-15T13:26:11;4.88;;;2.15;;
64197;SDS011;50512;53.666;9.700;2024-01-15T13:28:39;5.85;;;2.20;;
64197;SDS011;50512;53.666;9.700;2024-01-15T13:31:05;6.28;;;1.92;;
64197;SDS011;50512;53.666;9.700;2024-01-15T13:33:32;8.55;;;4.40;;
64197;SDS011;50512;53.666;9.700;2024-01-15T13:35:58;3.85;;;2.15;;
64197;SDS011;50512;53.666;9.700;2024-01-15T13:38:25;5.10;;;1.75;;
64197;SDS011;50512;53.666;9.700;2024-01-15T13:40:51;3.90;;;2.28;;
64197;SDS011;50512;53.666;9.700;2024-01-15T13:43:18;4.78;;;2.38;;
64197;SDS011;50512;53.666;9.700;2024-01-15T13:45:46;3.15;;;1.73;;
64197;SDS011;50512;53.666;9.700;2024-01-15T13:48:12;4.38;;;1.55;;
64197;SDS011;50512;53.666;9.700;2024-01-15T13:50:38;4.47;;;1.70;;
64197;SDS011;50512;53.666;9.700;2024-01-15T13:53:05;2.72;;;1.40;;
64197;SDS011;50512;53.666;9.700;2024-01-15T13:55:34;3.00;;;1.65;;
64197;SDS011;50512;53.666;9.700;2024-01-15T13:58:01;4.80;;;1.95;;
64197;SDS011;50512;53.666;9.700;2024-01-15T14:00:30;3.38;;;1.80;;
64197;SDS011;50512;53.666;9.700;2024-01-15T14:02:58;7.40;;;2.10;;
64197;SDS011;50512;53.666;9.700;2024-01-15T14:05:24;3.67;;;2.10;;
64197;SDS011;50512;53.666;9.700;2024-01-15T14:07:51;7.15;;;2.13;;
64197;SDS011;50512;53.666;9.700;2024-01-15T14:10:17;7.00;;;2.30;;
64197;SDS011;50512;53.666;9.700;2024-01-15T14:12:44;7.47;;;2.40;;
64197;SDS011;50512;53.666;9.700;2024-01-15T14:15:10;5.18;;;2.60;;
64197;SDS011;50512;53.666;9.700;2024-01-15T14:17:37;5.70;;;2.70;;
64197;SDS011;50512;53.666;9.700;2024-01-15T14:20:06;7.35;;;2.97;;
64197;SDS011;50512;53.666;9.700;2024-01-15T14:22:34;7.05;;;2.45;;
64197;SDS011;50512;53.666;9.700;2024-01-15T14:25:01;5.97;;;2.47;;
64197;SDS011;50512;53.666;9.700;2024-01-15T14:27:28;8.95;;;2.58;;
64197;SDS011;50512;53.666;9.700;2024-01-15T14:29:54;7.43;;;2.58;;
64197;SDS011;50512;53.666;9.700;2024-01-15T14:32:21;5.78;;;2.45;;
64197;SDS011;50512;53.666;9.700;2024-01-15T14:34:47;3.55;;;1.75;;
64197;SDS011;50512;53.666;9.700;2024-01-15T14:37:15;6.65;;;2.25;;
64197;SDS011;50512;53.666;9.700;2024-01-15T14:39:42;6.88;;;2.10;;
64197;SDS011;50512;53.666;9.700;2024-01-15T14:42:08;4.25;;;2.20;;
64197;SDS011;50512;53.666;9.700;2024-01-15T14:44:36;3.60;;;1.77;;
64197;SDS011;50512;53.666;9.700;2024-01-15T14:47:04;4.35;;;1.98;;
64197;SDS011;50512;53.666;9.700;2024-01-15T14:49:31;5.65;;;2.97;;
64197;SDS011;50512;53.666;9.700;2024-01-15T14:51:58;4.82;;;2.03;;